Terminal Aerodrome Forecast
Issued by NWS

Home | Current Version | Previous Version | Text Only | Print | Product List | Glossary Off
Versions: 1 2 3 4 5 6 7 8 9 10 11 12 13 14 15

000
FTUS43 KBIS 230520
TAFMOT
TAF
KMOT 230520Z 2306/2406 VRB06KT P6SM FEW250
     FM231300 34009KT P6SM BKN200
     FM232300 33010KT P6SM OVC080=

USA.gov is the U.S. government's official web portal to all federal, state and local government web resources and services.